Time;durP1;ratioP1;P1;durP2;ratioP2;P2;SDS_P1;SDS_P2;PMS_P1;PMS_P2;Temp;Humidity;BMP_temperature;BMP_pressure;BME280_temperature;BME280_humidity;BME280_pressure;Samples;Min_cycle;Max_cycle;Signal;HPM_P1;HPM_P2
2023/02/04 00:00:36;;;;;;;11.40;7.23;;;10.80;99.90;;;;;;5095174;28;20287;-87
2023/02/04 00:03:03;;;;;;;11.83;7.70;;;10.70;99.90;;;;;;5097403;28;20287;-91
2023/02/04 00:05:35;;;;;;;12.90;7.53;;;10.80;99.90;;;;;;5098680;28;20210;-90
2023/02/04 00:08:04;;;;;;;14.57;7.63;;;10.80;99.90;;;;;;5100797;28;20205;-88
2023/02/04 00:10:34;;;;;;;15.70;7.70;;;10.90;99.90;;;;;;5102160;28;20185;-89
2023/02/04 00:13:01;;;;;;;14.80;7.87;;;10.80;99.90;;;;;;5102226;28;20206;-86
2023/02/04 00:15:35;;;;;;;11.43;6.73;;;10.80;99.90;;;;;;5101173;28;20206;-93
2023/02/04 00:18:02;;;;;;;13.33;8.20;;;10.90;99.90;;;;;;5101390;28;20209;-92
2023/02/04 00:20:31;;;;;;;12.23;6.97;;;11.00;99.90;;;;;;5100784;28;20226;-85
2023/02/04 00:23:04;;;;;;;14.40;8.33;;;10.90;99.90;;;;;;5100732;28;20202;-88
2023/02/04 00:25:31;;;;;;;15.57;7.37;;;10.70;99.90;;;;;;5105688;28;20248;-87
2023/02/04 00:27:58;;;;;;;10.30;8.00;;;10.70;99.90;;;;;;5104025;28;20208;-89
2023/02/04 00:30:26;;;;;;;11.13;7.70;;;10.50;99.90;;;;;;5103170;28;20208;-89
2023/02/04 00:33:00;;;;;;;11.53;8.23;;;10.70;99.90;;;;;;5099085;28;20245;-92
2023/02/04 00:35:27;;;;;;;15.17;7.33;;;10.70;99.90;;;;;;5098541;28;20197;-91
2023/02/04 00:37:55;;;;;;;15.03;8.10;;;10.80;99.90;;;;;;5098057;28;20197;-92
2023/02/04 00:40:27;;;;;;;12.47;8.53;;;10.90;99.90;;;;;;5097565;28;20715;-90
2023/02/04 00:42:56;;;;;;;14.00;7.83;;;10.80;99.90;;;;;;5097679;28;20201;-89
2023/02/04 00:45:25;;;;;;;15.77;8.27;;;10.60;99.90;;;;;;5097779;28;20217;-88
2023/02/04 00:47:56;;;;;;;13.53;8.87;;;10.60;99.90;;;;;;5097380;28;20198;-89
2023/02/04 00:50:25;;;;;;;14.67;9.00;;;10.50;99.90;;;;;;5097362;28;20230;-93
2023/02/04 00:52:54;;;;;;;19.03;8.90;;;10.40;99.90;;;;;;5096923;28;20207;-90
2023/02/04 00:55:26;;;;;;;12.13;9.37;;;10.40;99.90;;;;;;5097329;28;20651;-90
2023/02/04 00:57:53;;;;;;;12.50;9.27;;;10.50;99.90;;;;;;5086219;28;20649;-89
2023/02/04 01:00:20;;;;;;;14.57;9.33;;;10.40;99.90;;;;;;5076487;28;20237;-89
2023/02/04 01:02:47;;;;;;;13.70;9.87;;;10.30;99.90;;;;;;5076326;28;20197;-90
2023/02/04 01:05:17;;;;;;;18.23;10.67;;;10.30;99.90;;;;;;5076551;28;20197;-93
2023/02/04 01:07:46;;;;;;;18.50;11.40;;;10.10;99.90;;;;;;5075976;28;20194;-84
2023/02/04 01:10:14;;;;;;;13.83;10.20;;;10.20;99.90;;;;;;5076575;28;20216;-92
2023/02/04 01:12:44;;;;;;;17.20;10.13;;;10.00;99.90;;;;;;5076194;28;20252;-89
2023/02/04 01:15:11;;;;;;;18.77;11.23;;;10.00;99.90;;;;;;5076495;28;20206;-86
2023/02/04 01:17:40;;;;;;;18.50;11.07;;;10.10;99.90;;;;;;5076486;28;20202;-87
2023/02/04 01:20:09;;;;;;;17.33;11.00;;;10.10;99.90;;;;;;5076327;28;20233;-88
2023/02/04 01:22:37;;;;;;;16.83;11.33;;;10.00;99.90;;;;;;5075807;28;20557;-86
2023/02/04 01:25:07;;;;;;;21.27;12.07;;;10.10;99.90;;;;;;5075632;28;20672;-83
2023/02/04 01:27:38;;;;;;;17.17;11.37;;;10.10;99.90;;;;;;5076004;28;20213;-90
2023/02/04 01:30:06;;;;;;;20.97;12.67;;;10.10;99.90;;;;;;5074911;28;20201;-84
2023/02/04 01:32:36;;;;;;;17.93;12.20;;;10.00;99.90;;;;;;5076049;28;20201;-87
2023/02/04 01:35:06;;;;;;;18.00;12.13;;;10.30;99.90;;;;;;5074595;28;20211;-89
2023/02/04 01:37:34;;;;;;;22.87;12.53;;;10.20;99.90;;;;;;5075636;28;20226;-92
2023/02/04 01:40:07;;;;;;;15.60;12.17;;;10.10;99.90;;;;;;5075867;28;20226;-88
2023/02/04 01:42:37;;;;;;;16.57;12.27;;;10.20;99.90;;;;;;5075573;28;20209;-91
2023/02/04 01:45:10;;;;;;;17.57;12.53;;;10.30;99.90;;;;;;5076005;28;20203;-93
2023/02/04 01:47:51;;;;;;;29.17;13.90;;;10.20;99.90;;;;;;5075688;28;20190;-85
2023/02/04 01:50:18;;;;;;;19.47;13.60;;;10.00;99.90;;;;;;5075205;28;20198;-86
2023/02/04 01:52:47;;;;;;;20.23;13.97;;;10.10;99.90;;;;;;5075513;28;20196;-85
2023/02/04 01:55:17;;;;;;;22.07;14.30;;;10.20;99.90;;;;;;5075030;28;20206;-87
2023/02/04 01:57:47;;;;;;;18.83;12.97;;;10.30;99.90;;;;;;5075098;28;20219;-81
2023/02/04 02:00:17;;;;;;;22.37;14.47;;;10.40;99.90;;;;;;5074859;28;20646;-89
2023/02/04 02:02:47;;;;;;;17.40;13.30;;;10.50;99.90;;;;;;5074862;28;20206;-81
2023/02/04 02:05:19;;;;;;;22.10;13.43;;;10.40;99.90;;;;;;5074949;28;20590;-90
2023/02/04 02:07:49;;;;;;;23.57;13.90;;;10.40;99.90;;;;;;5074770;28;20242;-91
2023/02/04 02:10:18;;;;;;;19.37;13.70;;;10.40;99.90;;;;;;5079424;28;20213;-87
2023/02/04 02:12:51;;;;;;;18.00;13.37;;;10.40;99.90;;;;;;5094282;28;20292;-81
2023/02/04 02:15:19;;;;;;;25.33;13.80;;;10.30;99.90;;;;;;5081265;28;20198;-82
2023/02/04 02:17:47;;;;;;;20.80;14.60;;;10.30;99.90;;;;;;5082119;28;20242;-90
2023/02/04 02:20:18;;;;;;;22.23;13.50;;;10.30;99.90;;;;;;5080218;28;20289;-83
2023/02/04 02:22:55;;;;;;;22.53;13.67;;;10.30;99.90;;;;;;5093754;28;20205;-81
2023/02/04 02:25:29;;;;;;;28.50;14.07;;;10.40;99.90;;;;;;5094720;28;20291;-92
2023/02/04 02:27:58;;;;;;;24.13;14.27;;;10.40;99.90;;;;;;5094616;28;20201;-81
2023/02/04 02:30:27;;;;;;;23.70;14.67;;;10.30;99.90;;;;;;5093004;28;20246;-80
2023/02/04 02:32:59;;;;;;;21.93;14.10;;;10.20;99.90;;;;;;5093888;28;20211;-85
2023/02/04 02:35:28;;;;;;;24.30;14.40;;;10.20;99.90;;;;;;5093835;28;20201;-81
2023/02/04 02:37:55;;;;;;;20.83;14.70;;;10.20;99.90;;;;;;5093989;28;20197;-81
2023/02/04 02:40:22;;;;;;;16.20;14.47;;;10.10;99.90;;;;;;5093936;28;20231;-81
2023/02/04 02:42:53;;;;;;;22.03;15.10;;;10.20;99.90;;;;;;5093871;28;20202;-80
2023/02/04 02:45:24;;;;;;;19.30;14.27;;;10.00;99.90;;;;;;5094049;28;20221;-86
2023/02/04 02:47:52;;;;;;;19.83;15.17;;;10.00;99.90;;;;;;5093850;28;20209;-85
2023/02/04 02:50:23;;;;;;;19.50;14.20;;;10.00;99.90;;;;;;5089463;28;20208;-80
2023/02/04 02:52:49;;;;;;;22.10;14.73;;;10.10;99.90;;;;;;5072757;28;20207;-80
2023/02/04 02:55:18;;;;;;;22.00;15.03;;;10.00;99.90;;;;;;5084873;28;20205;-85
2023/02/04 02:57:46;;;;;;;21.67;15.43;;;10.00;99.90;;;;;;5084753;28;20202;-83
2023/02/04 03:00:20;;;;;;;21.90;14.73;;;9.90;99.90;;;;;;5080455;28;20209;-79
2023/02/04 03:02:57;;;;;;;20.97;15.97;;;10.00;99.90;;;;;;5093078;28;20228;-79
2023/02/04 03:05:25;;;;;;;27.07;15.07;;;10.10;99.90;;;;;;5091446;28;20196;-81
2023/02/04 03:07:53;;;;;;;23.20;16.23;;;10.00;99.90;;;;;;5083612;28;20538;-80
2023/02/04 03:10:19;;;;;;;24.57;16.43;;;10.10;99.90;;;;;;5093581;28;20228;-78
2023/02/04 03:12:47;;;;;;;26.63;16.53;;;10.00;99.90;;;;;;5094198;28;20193;-79
2023/02/04 03:15:15;;;;;;;20.37;15.90;;;10.00;99.90;;;;;;5093280;28;20672;-82
2023/02/04 03:17:47;;;;;;;25.60;16.93;;;10.00;99.90;;;;;;5093048;28;20546;-78
2023/02/04 03:20:16;;;;;;;22.43;17.50;;;9.90;99.90;;;;;;5093561;28;20197;-87
2023/02/04 03:22:46;;;;;;;26.33;18.27;;;9.90;99.90;;;;;;5093865;28;20232;-89
2023/02/04 03:25:14;;;;;;;26.63;18.70;;;9.80;99.90;;;;;;5094594;28;20205;-87
2023/02/04 03:27:41;;;;;;;30.93;21.30;;;9.90;99.90;;;;;;5077524;28;20560;-87
2023/02/04 03:30:08;;;;;;;28.40;20.57;;;9.90;99.90;;;;;;5090438;28;20276;-91
2023/02/04 03:32:40;;;;;;;30.43;19.30;;;10.10;99.90;;;;;;5083134;28;20213;-90
2023/02/04 03:35:09;;;;;;;30.27;19.50;;;10.00;99.90;;;;;;5083835;28;20544;-90
2023/02/04 03:37:38;;;;;;;29.10;19.13;;;10.00;99.90;;;;;;5097222;28;20220;-90
2023/02/04 03:40:05;;;;;;;29.47;19.90;;;10.00;99.90;;;;;;5097024;28;20243;-92
2023/02/04 03:42:32;;;;;;;35.47;20.43;;;10.00;99.90;;;;;;5097403;28;20427;-79
2023/02/04 03:45:05;;;;;;;29.60;19.60;;;10.00;99.90;;;;;;5097273;28;20731;-86
2023/02/04 03:47:32;;;;;;;25.43;19.57;;;10.00;99.90;;;;;;5097289;28;20213;-79
2023/02/04 03:50:01;;;;;;;27.43;18.93;;;9.90;99.90;;;;;;5097143;28;20205;-84
2023/02/04 03:52:29;;;;;;;24.77;18.57;;;9.90;99.90;;;;;;5097296;28;20211;-84
2023/02/04 03:54:56;;;;;;;24.97;19.00;;;9.80;99.90;;;;;;5097144;28;20204;-80
2023/02/04 03:57:23;;;;;;;24.83;18.67;;;9.80;99.90;;;;;;5097323;28;20209;-85
2023/02/04 03:59:51;;;;;;;25.30;18.40;;;9.80;99.90;;;;;;5097331;28;20208;-90
2023/02/04 04:02:17;;;;;;;27.07;18.23;;;10.00;99.90;;;;;;5097046;28;20221;-82
2023/02/04 04:04:47;;;;;;;20.60;16.90;;;10.00;99.90;;;;;;5086470;28;20213;-87
2023/02/04 04:07:15;;;;;;;23.67;17.33;;;10.10;99.90;;;;;;5095438;28;20197;-87
2023/02/04 04:09:43;;;;;;;23.77;17.60;;;9.90;99.90;;;;;;5097313;28;20649;-88
2023/02/04 04:12:10;;;;;;;19.37;16.00;;;9.80;99.90;;;;;;5097334;28;20205;-86
2023/02/04 04:14:37;;;;;;;21.60;17.53;;;9.80;99.90;;;;;;5097569;28;20201;-91
2023/02/04 04:17:09;;;;;;;22.00;17.70;;;9.90;99.90;;;;;;5097415;28;20196;-90
2023/02/04 04:19:37;;;;;;;24.77;17.43;;;9.90;99.90;;;;;;5097171;28;20209;-88
2023/02/04 04:22:04;;;;;;;26.30;19.00;;;9.80;99.90;;;;;;5096740;28;20228;-87
2023/02/04 04:24:31;;;;;;;25.00;18.97;;;9.80;99.90;;;;;;5097004;28;20205;-91
2023/02/04 04:26:59;;;;;;;28.33;19.57;;;9.80;99.90;;;;;;5096631;28;20696;-89
2023/02/04 04:29:26;;;;;;;28.67;21.13;;;9.70;99.90;;;;;;5096453;28;20621;-78
2023/02/04 04:31:53;;;;;;;28.83;21.30;;;9.70;99.90;;;;;;5096223;28;20197;-87
2023/02/04 04:34:20;;;;;;;28.13;21.13;;;9.70;99.90;;;;;;5096779;28;20189;-86
2023/02/04 04:36:46;;;;;;;31.50;21.70;;;9.70;99.90;;;;;;5096375;28;20225;-85
2023/02/04 04:39:13;;;;;;;30.20;20.20;;;9.70;99.90;;;;;;5096166;28;20209;-85
2023/02/04 04:41:43;;;;;;;30.80;20.87;;;9.80;99.90;;;;;;5096268;28;20224;-85
2023/02/04 04:44:11;;;;;;;29.23;20.73;;;9.80;99.90;;;;;;5096042;28;20205;-79
2023/02/04 04:46:39;;;;;;;30.67;20.07;;;9.90;99.90;;;;;;5095233;28;20205;-88
2023/02/04 04:49:06;;;;;;;28.73;19.67;;;9.80;99.90;;;;;;5096619;28;20185;-79
2023/02/04 04:51:33;;;;;;;30.40;19.80;;;9.70;99.90;;;;;;5096298;28;20216;-81
2023/02/04 04:54:01;;;;;;;34.10;19.13;;;9.80;99.90;;;;;;5096040;28;20204;-83
2023/02/04 04:56:27;;;;;;;34.60;20.00;;;9.70;99.90;;;;;;5096022;28;20292;-79
2023/02/04 04:58:56;;;;;;;38.80;21.43;;;9.80;99.90;;;;;;5096193;28;20197;-86
2023/02/04 05:01:25;;;;;;;34.13;22.20;;;9.80;99.90;;;;;;5095778;28;20201;-86
2023/02/04 05:03:52;;;;;;;31.07;21.17;;;9.80;99.90;;;;;;5096040;28;20659;-82
2023/02/04 05:06:24;;;;;;;34.17;22.63;;;9.80;99.90;;;;;;5096117;28;20209;-83
2023/02/04 05:08:51;;;;;;;36.97;23.87;;;9.90;99.90;;;;;;5096128;28;20212;-80
2023/02/04 05:11:18;;;;;;;40.40;23.73;;;9.90;99.90;;;;;;5096015;28;20192;-79
2023/02/04 05:13:44;;;;;;;39.60;23.13;;;9.80;99.90;;;;;;5095426;28;20197;-79
2023/02/04 05:16:11;;;;;;;38.33;23.57;;;9.80;99.90;;;;;;5095473;28;20212;-79
2023/02/04 05:18:40;;;;;;;48.40;24.20;;;9.60;99.90;;;;;;5095517;28;20280;-80
2023/02/04 05:21:08;;;;;;;46.77;25.33;;;9.60;99.90;;;;;;5095490;28;20189;-87
2023/02/04 05:23:35;;;;;;;45.17;25.35;;;9.80;99.90;;;;;;5095443;28;20453;-79
2023/02/04 05:26:01;;;;;;;47.40;26.67;;;9.80;99.90;;;;;;5095348;28;20212;-80
2023/02/04 05:28:28;;;;;;;45.97;25.33;;;9.90;99.90;;;;;;5095319;28;20194;-80
2023/02/04 05:30:55;;;;;;;44.43;24.17;;;9.80;99.90;;;;;;5095391;28;20193;-81
2023/02/04 05:33:22;;;;;;;42.60;24.73;;;9.70;99.90;;;;;;5095509;28;20212;-79
2023/02/04 05:35:50;;;;;;;43.57;25.67;;;9.80;99.90;;;;;;5095478;28;20233;-79
2023/02/04 05:38:17;;;;;;;48.83;24.47;;;9.90;99.90;;;;;;5095222;28;20201;-85
2023/02/04 05:40:44;;;;;;;42.73;24.30;;;9.80;99.90;;;;;;5095002;28;20209;-82
2023/02/04 05:43:11;;;;;;;46.03;24.87;;;9.80;99.90;;;;;;5094874;28;20213;-82
2023/02/04 05:45:38;;;;;;;46.73;24.50;;;9.80;99.90;;;;;;5095218;28;20206;-81
2023/02/04 05:48:05;;;;;;;47.07;24.20;;;9.80;99.90;;;;;;5094958;28;20201;-82
2023/02/04 05:50:32;;;;;;;46.07;25.13;;;9.70;99.90;;;;;;5095451;28;20197;-81
2023/02/04 05:53:01;;;;;;;40.17;23.27;;;9.70;99.90;;;;;;5095078;28;20204;-81
2023/02/04 05:55:28;;;;;;;42.03;23.43;;;9.80;99.90;;;;;;5094735;28;20552;-79
2023/02/04 05:57:55;;;;;;;40.53;22.60;;;9.80;99.90;;;;;;5094404;28;20573;-84
2023/02/04 06:00:22;;;;;;;42.00;22.00;;;9.70;99.90;;;;;;5093111;28;20216;-81
2023/02/04 06:02:48;;;;;;;38.97;23.47;;;9.80;99.90;;;;;;5075315;28;20233;-85
2023/02/04 06:05:18;;;;;;;41.57;23.07;;;9.60;99.90;;;;;;5085929;28;20205;-82
2023/02/04 06:07:45;;;;;;;40.90;22.60;;;9.50;99.90;;;;;;5094439;28;20210;-81
2023/02/04 06:10:15;;;;;;;36.27;23.30;;;9.50;99.90;;;;;;5094777;28;20212;-81
2023/02/04 06:12:42;;;;;;;37.93;21.03;;;9.50;99.90;;;;;;5094159;28;20205;-83
2023/02/04 06:15:09;;;;;;;35.47;21.53;;;9.70;99.90;;;;;;5094543;28;20205;-78
2023/02/04 06:17:36;;;;;;;39.10;22.50;;;9.70;99.90;;;;;;5093903;28;20832;-81
2023/02/04 06:20:03;;;;;;;40.37;21.17;;;9.70;99.90;;;;;;5094373;28;20205;-81
2023/02/04 06:22:30;;;;;;;41.17;21.93;;;9.70;99.90;;;;;;5093994;28;20224;-86
2023/02/04 06:24:59;;;;;;;37.63;21.17;;;9.70;99.90;;;;;;5094153;28;20205;-88
2023/02/04 06:27:27;;;;;;;35.50;21.63;;;9.80;99.90;;;;;;5093373;28;20212;-78
2023/02/04 06:29:54;;;;;;;36.80;21.83;;;9.60;99.90;;;;;;5093924;28;20562;-81
2023/02/04 06:32:21;;;;;;;42.83;21.97;;;9.50;99.90;;;;;;5093405;28;20576;-83
2023/02/04 06:34:49;;;;;;;38.53;22.63;;;9.60;99.90;;;;;;5089619;28;20205;-82
2023/02/04 06:37:16;;;;;;;33.33;20.67;;;9.50;99.90;;;;;;5083955;28;20225;-80
2023/02/04 06:39:43;;;;;;;38.90;22.17;;;9.60;99.90;;;;;;5085618;28;20209;-81
2023/02/04 06:42:10;;;;;;;36.30;21.43;;;9.60;99.90;;;;;;5084041;28;20221;-88
2023/02/04 06:44:38;;;;;;;41.00;21.23;;;9.50;99.90;;;;;;5094506;28;20212;-87
2023/02/04 06:47:05;;;;;;;40.93;22.20;;;9.60;99.90;;;;;;5094630;28;20216;-81
2023/02/04 06:49:32;;;;;;;41.60;22.77;;;9.60;99.90;;;;;;5087949;28;20210;-82
2023/02/04 06:51:59;;;;;;;36.97;22.27;;;9.80;99.90;;;;;;5083072;28;20209;-81
2023/02/04 06:54:26;;;;;;;41.37;23.17;;;9.70;99.90;;;;;;5093885;28;20218;-85
2023/02/04 06:56:53;;;;;;;37.40;21.70;;;9.80;99.90;;;;;;5093467;28;20612;-90
2023/02/04 06:59:20;;;;;;;40.33;22.30;;;9.80;99.90;;;;;;5092796;28;20205;-87
2023/02/04 07:01:48;;;;;;;41.70;23.53;;;9.70;99.90;;;;;;5093440;28;20938;-84
2023/02/04 07:04:15;;;;;;;48.37;24.80;;;9.70;99.90;;;;;;5083624;28;20205;-79
2023/02/04 07:06:41;;;;;;;41.17;23.80;;;9.80;99.90;;;;;;5089852;28;20201;-81
2023/02/04 07:09:08;;;;;;;46.23;24.27;;;9.80;99.90;;;;;;5093060;28;20208;-85
2023/02/04 07:11:37;;;;;;;41.73;24.80;;;9.80;99.90;;;;;;5093453;28;20208;-86
2023/02/04 07:14:06;;;;;;;44.20;23.73;;;9.90;99.90;;;;;;5094056;28;20209;-88
2023/02/04 07:16:33;;;;;;;44.90;23.70;;;9.80;99.90;;;;;;5093657;28;20208;-87
2023/02/04 07:19:02;;;;;;;43.67;24.20;;;9.70;99.90;;;;;;5093618;28;20209;-84
2023/02/04 07:21:31;;;;;;;45.30;24.70;;;9.80;99.90;;;;;;5093836;28;20225;-84
2023/02/04 07:23:58;;;;;;;46.40;24.43;;;9.90;99.90;;;;;;5092090;28;20675;-83
2023/02/04 07:26:24;;;;;;;42.67;23.73;;;9.80;99.90;;;;;;5092384;28;20197;-78
2023/02/04 07:28:52;;;;;;;43.73;24.00;;;9.80;99.90;;;;;;5092636;28;20204;-79
2023/02/04 07:31:18;;;;;;;47.77;25.03;;;10.00;99.90;;;;;;5093316;28;20607;-78
2023/02/04 07:33:45;;;;;;;45.53;25.17;;;10.00;99.90;;;;;;5092870;28;20209;-81
2023/02/04 07:36:13;;;;;;;45.40;24.77;;;9.90;99.90;;;;;;5092819;28;20225;-79
2023/02/04 07:38:40;;;;;;;44.23;24.33;;;10.00;99.90;;;;;;5091924;28;20201;-82
2023/02/04 07:41:07;;;;;;;43.37;24.13;;;9.90;99.90;;;;;;5093027;28;20217;-79
2023/02/04 07:43:34;;;;;;;44.47;24.77;;;10.00;99.90;;;;;;5092396;28;20233;-82
2023/02/04 07:46:00;;;;;;;41.87;24.67;;;10.00;99.90;;;;;;5092690;28;20201;-78
2023/02/04 07:48:27;;;;;;;43.30;24.77;;;10.00;99.90;;;;;;5079045;28;20208;-79
2023/02/04 07:50:54;;;;;;;41.67;23.03;;;10.00;99.90;;;;;;5091576;28;20209;-80
2023/02/04 07:53:22;;;;;;;44.23;24.17;;;10.10;99.90;;;;;;5091561;28;20205;-81
2023/02/04 07:55:49;;;;;;;40.03;23.10;;;10.10;99.90;;;;;;5092528;28;20213;-79
2023/02/04 07:58:16;;;;;;;45.67;23.93;;;9.90;99.90;;;;;;5091884;28;20209;-83
2023/02/04 08:00:42;;;;;;;45.37;23.00;;;10.10;99.90;;;;;;5091640;28;20200;-83
2023/02/04 08:03:09;;;;;;;42.93;23.80;;;10.00;99.90;;;;;;5091788;28;20234;-80
2023/02/04 08:05:36;;;;;;;38.63;23.23;;;10.00;99.90;;;;;;5089379;28;20216;-79
2023/02/04 08:08:03;;;;;;;42.83;23.03;;;10.00;99.90;;;;;;5086303;28;20194;-80
2023/02/04 08:10:31;;;;;;;35.33;20.97;;;9.90;99.90;;;;;;5086838;28;20206;-87
2023/02/04 08:12:58;;;;;;;32.50;19.67;;;10.00;99.90;;;;;;5086932;28;20213;-80
2023/02/04 08:15:31;;;;;;;31.50;19.40;;;10.10;99.90;;;;;;5082788;28;20217;-80
2023/02/04 08:17:58;;;;;;;42.78;26.65;;;10.00;99.90;;;;;;5085877;28;20432;-81
2023/02/04 08:20:27;;;;;;;33.63;21.37;;;10.00;99.90;;;;;;5084020;28;20217;-85
2023/02/04 08:22:56;;;;;;;33.73;21.13;;;10.00;99.90;;;;;;5082734;28;20579;-81
2023/02/04 08:25:24;;;;;;;35.67;20.80;;;10.10;99.90;;;;;;5096287;28;20208;-79
2023/02/04 08:27:53;;;;;;;37.33;21.07;;;10.10;99.90;;;;;;5095879;28;20198;-80
2023/02/04 08:30:20;;;;;;;35.67;20.37;;;10.00;99.90;;;;;;5095729;28;20204;-77
2023/02/04 08:32:47;;;;;;;40.93;22.50;;;10.00;99.90;;;;;;5095649;28;20656;-79
2023/02/04 08:35:13;;;;;;;37.27;21.43;;;9.90;99.90;;;;;;5091566;28;20202;-78
2023/02/04 08:37:40;;;;;;;38.27;21.10;;;9.90;99.90;;;;;;5085982;28;20237;-84
2023/02/04 08:40:07;;;;;;;40.00;22.30;;;10.10;99.90;;;;;;5095570;28;20213;-83
2023/02/04 08:42:34;;;;;;;39.30;22.27;;;10.30;99.90;;;;;;5095652;28;20667;-84
2023/02/04 08:45:03;;;;;;;39.47;21.93;;;10.20;99.90;;;;;;5095877;28;20220;-77
2023/02/04 08:47:30;;;;;;;37.57;21.77;;;10.40;99.90;;;;;;5095828;28;20220;-81
2023/02/04 08:49:57;;;;;;;42.77;22.73;;;10.50;99.90;;;;;;5095284;28;20205;-79
2023/02/04 08:52:24;;;;;;;38.30;22.07;;;10.40;99.90;;;;;;5095229;28;20206;-79
2023/02/04 08:54:50;;;;;;;41.37;21.20;;;10.40;99.90;;;;;;5095789;28;20201;-80
2023/02/04 08:57:17;;;;;;;40.07;20.23;;;10.50;99.90;;;;;;5095240;28;20197;-77
2023/02/04 08:59:44;;;;;;;38.90;21.40;;;10.30;99.90;;;;;;5095441;28;20205;-78
2023/02/04 09:02:13;;;;;;;36.77;21.10;;;10.40;99.90;;;;;;5095288;28;20225;-79
2023/02/04 09:04:39;;;;;;;38.83;21.90;;;10.10;99.90;;;;;;5095082;28;20230;-80
2023/02/04 09:07:06;;;;;;;33.73;21.13;;;10.00;99.90;;;;;;5095252;28;20213;-80
2023/02/04 09:09:33;;;;;;;36.23;21.57;;;10.00;99.90;;;;;;5094487;28;20212;-79
2023/02/04 09:12:00;;;;;;;38.83;21.03;;;10.10;99.90;;;;;;5095235;28;20220;-77
2023/02/04 09:14:27;;;;;;;40.37;22.20;;;10.20;99.90;;;;;;5094881;28;20255;-79
2023/02/04 09:16:54;;;;;;;31.23;18.37;;;10.30;99.90;;;;;;5095077;28;20646;-78
2023/02/04 09:19:24;;;;;;;36.03;19.00;;;10.10;99.90;;;;;;5088472;28;20216;-78
2023/02/04 09:21:51;;;;;;;34.27;18.80;;;10.10;99.90;;;;;;5088639;28;20228;-76
2023/02/04 09:24:18;;;;;;;32.33;18.53;;;10.10;99.90;;;;;;5094767;28;20233;-78
2023/02/04 09:26:46;;;;;;;32.60;18.33;;;9.90;99.90;;;;;;5094379;28;20667;-78
2023/02/04 09:29:13;;;;;;;34.67;19.00;;;9.80;99.90;;;;;;5094292;28;20202;-76
2023/02/04 09:31:41;;;;;;;38.10;20.20;;;9.70;99.90;;;;;;5093750;28;20209;-80
2023/02/04 09:34:08;;;;;;;36.73;20.20;;;9.80;99.90;;;;;;5094666;28;20206;-77
2023/02/04 09:36:38;;;;;;;31.83;20.03;;;9.90;99.90;;;;;;5094601;28;20221;-79
2023/02/04 09:39:05;;;;;;;30.80;20.17;;;9.90;99.90;;;;;;5093904;28;20233;-87
2023/02/04 09:41:33;;;;;;;34.90;21.10;;;10.00;99.90;;;;;;5091738;28;20712;-80
2023/02/04 09:44:00;;;;;;;35.67;21.57;;;10.10;99.90;;;;;;5092586;28;20213;-81
2023/02/04 09:46:29;;;;;;;35.30;20.80;;;10.00;99.90;;;;;;5092000;28;20202;-78
2023/02/04 09:48:56;;;;;;;35.63;20.83;;;10.00;99.90;;;;;;5094210;28;20213;-86
2023/02/04 09:51:26;;;;;;;37.17;20.83;;;10.00;99.90;;;;;;5094107;28;20602;-80
2023/02/04 09:54:02;;;;;;;34.43;20.47;;;10.10;99.90;;;;;;5094172;28;20205;-80
2023/02/04 09:56:30;;;;;;;34.93;21.10;;;10.10;99.90;;;;;;5094037;28;20207;-80
2023/02/04 09:58:57;;;;;;;35.63;22.57;;;10.10;99.90;;;;;;5093879;28;20202;-80
2023/02/04 10:01:26;;;;;;;37.37;21.87;;;10.30;99.90;;;;;;5094477;28;20198;-80
2023/02/04 10:03:58;;;;;;;34.83;22.10;;;10.10;99.90;;;;;;5093675;28;20351;-81
2023/02/04 10:06:25;;;;;;;37.10;22.43;;;10.30;99.90;;;;;;5093784;28;20201;-78
2023/02/04 10:08:54;;;;;;;39.20;23.03;;;10.50;99.90;;;;;;5093565;28;20204;-81
2023/02/04 10:11:23;;;;;;;41.90;24.43;;;10.60;99.90;;;;;;5090078;28;20200;-82
2023/02/04 10:13:52;;;;;;;37.60;23.10;;;10.40;99.90;;;;;;5091449;28;20199;-82
2023/02/04 10:16:28;;;;;;;38.03;24.07;;;10.50;99.90;;;;;;5087816;28;20241;-81
2023/02/04 10:18:56;;;;;;;43.67;23.93;;;10.60;99.90;;;;;;5087650;28;20204;-83
2023/02/04 10:21:26;;;;;;;46.40;25.20;;;10.70;99.90;;;;;;5088529;28;20202;-90
2023/02/04 10:23:57;;;;;;;47.27;26.53;;;10.90;99.90;;;;;;5077845;28;20218;-82
2023/02/04 10:26:27;;;;;;;40.97;25.87;;;10.80;99.90;;;;;;5087598;28;20203;-82
2023/02/04 10:28:59;;;;;;;37.70;23.97;;;10.80;99.90;;;;;;5090981;28;20221;-81
2023/02/04 10:31:36;;;;;;;41.40;23.53;;;10.90;99.90;;;;;;5092458;28;20199;-82
2023/02/04 10:34:13;;;;;;;38.17;22.87;;;10.70;99.90;;;;;;5091353;28;20206;-82
2023/02/04 10:36:42;;;;;;;37.40;24.07;;;10.70;99.90;;;;;;5091873;28;20229;-80
2023/02/04 10:39:14;;;;;;;38.60;22.37;;;10.80;99.90;;;;;;5092549;28;20653;-82
2023/02/04 10:41:46;;;;;;;35.30;22.63;;;10.80;99.90;;;;;;5091874;28;20195;-80
2023/02/04 10:44:15;;;;;;;37.30;23.33;;;10.70;99.90;;;;;;5088706;28;20241;-79
2023/02/04 10:46:42;;;;;;;35.97;22.90;;;10.70;99.90;;;;;;5093191;28;20572;-85
2023/02/04 10:49:20;;;;;;;36.67;22.07;;;10.70;99.90;;;;;;5092288;28;20222;-84
2023/02/04 10:51:49;;;;;;;31.37;22.27;;;10.80;99.90;;;;;;5074265;28;20522;-85
2023/02/04 10:54:31;;;;;;;36.10;22.53;;;10.80;99.90;;;;;;5086869;28;20206;-83
2023/02/04 10:57:07;;;;;;;33.20;22.23;;;10.70;99.90;;;;;;5094334;28;20233;-84
2023/02/04 10:59:35;;;;;;;31.93;21.87;;;10.50;99.90;;;;;;5093456;28;20202;-90
2023/02/04 11:02:25;;;;;;;37.47;21.43;;;10.70;99.90;;;;;;5086881;28;20209;-86
2023/02/04 11:04:52;;;;;;;36.27;21.23;;;10.90;99.90;;;;;;5089667;28;20243;-82
2023/02/04 11:07:20;;;;;;;32.67;22.07;;;11.00;99.90;;;;;;5079667;28;20212;-81
2023/02/04 11:09:49;;;;;;;33.10;23.13;;;11.10;99.90;;;;;;5093436;28;20199;-83
2023/02/04 11:12:21;;;;;;;35.20;23.57;;;11.00;99.90;;;;;;5086455;28;20588;-86
2023/02/04 11:14:55;;;;;;;35.60;22.93;;;10.90;99.90;;;;;;5087019;28;20619;-79
2023/02/04 11:17:29;;;;;;;35.20;21.77;;;10.90;99.90;;;;;;5092914;28;20208;-80
2023/02/04 11:19:55;;;;;;;31.03;22.57;;;10.90;99.90;;;;;;5092970;28;20258;-81
2023/02/04 11:22:24;;;;;;;29.03;21.77;;;11.10;99.90;;;;;;5092736;28;20720;-80
2023/02/04 11:24:52;;;;;;;34.87;20.43;;;11.20;99.90;;;;;;5092761;28;20223;-80
2023/02/04 11:27:22;;;;;;;26.57;19.83;;;11.40;99.90;;;;;;5092533;28;20223;-81
2023/02/04 11:29:50;;;;;;;28.00;19.17;;;11.50;99.90;;;;;;5092474;28;20294;-79
2023/02/04 11:32:36;;;;;;;28.93;19.27;;;11.60;99.90;;;;;;5093393;28;20204;-83
2023/02/04 11:35:20;;;;;;;25.47;19.33;;;11.50;99.90;;;;;;5093301;28;20593;-83
2023/02/04 11:37:47;;;;;;;27.47;19.53;;;11.40;99.90;;;;;;5093062;28;20674;-79
2023/02/04 11:40:25;;;;;;;23.00;17.93;;;11.60;99.90;;;;;;5092853;28;20663;-84
2023/02/04 11:43:01;;;;;;;23.23;15.97;;;11.70;99.90;;;;;;5093179;28;20191;-89
2023/02/04 11:45:33;;;;;;;18.43;14.07;;;11.60;99.90;;;;;;5092733;28;20242;-85
2023/02/04 11:48:03;;;;;;;19.63;14.37;;;11.60;99.90;;;;;;5080434;28;20212;-80
2023/02/04 11:50:32;;;;;;;21.33;14.63;;;11.70;99.90;;;;;;5092841;28;20212;-83
2023/02/04 11:53:01;;;;;;;19.47;14.50;;;11.60;99.90;;;;;;5092822;28;20215;-79
2023/02/04 11:55:30;;;;;;;25.13;14.47;;;11.80;99.90;;;;;;5094520;28;20644;-81
2023/02/04 11:57:57;;;;;;;20.10;11.77;;;11.70;99.90;;;;;;5095972;28;20197;-80
2023/02/04 12:00:26;;;;;;;19.87;10.63;;;11.70;99.90;;;;;;5096655;28;20663;-84
2023/02/04 12:02:57;;;;;;;17.00;11.10;;;11.90;99.90;;;;;;5096875;28;20205;-83
2023/02/04 12:05:36;;;;;;;16.60;11.53;;;11.80;99.90;;;;;;5096790;28;20238;-80
2023/02/04 12:08:11;;;;;;;14.13;8.87;;;11.90;99.90;;;;;;5096982;28;20204;-80
2023/02/04 12:10:49;;;;;;;12.63;8.87;;;11.80;99.90;;;;;;5096383;28;20250;-78
2023/02/04 12:13:18;;;;;;;14.13;9.57;;;11.80;99.90;;;;;;5093744;28;20713;-82
2023/02/04 12:15:54;;;;;;;15.97;9.37;;;12.00;99.90;;;;;;5093886;28;20670;-80
2023/02/04 12:18:21;;;;;;;14.87;10.47;;;12.20;99.90;;;;;;5093469;28;20216;-81
2023/02/04 12:20:47;;;;;;;13.50;10.00;;;12.20;99.90;;;;;;5095818;28;20207;-81
2023/02/04 12:23:14;;;;;;;15.30;10.40;;;12.20;99.90;;;;;;5088338;28;20212;-82
2023/02/04 12:25:42;;;;;;;17.27;10.03;;;12.10;99.90;;;;;;5076193;28;20233;-84
2023/02/04 12:28:09;;;;;;;13.07;9.80;;;12.10;99.90;;;;;;5083211;28;20212;-84
2023/02/04 12:30:36;;;;;;;14.57;11.07;;;12.10;99.90;;;;;;5096131;28;20561;-86
2023/02/04 12:33:03;;;;;;;15.17;11.47;;;12.10;99.90;;;;;;5096278;28;20204;-81
2023/02/04 12:35:30;;;;;;;15.17;11.37;;;12.20;99.90;;;;;;5082129;28;20198;-81
2023/02/04 12:37:57;;;;;;;17.27;11.70;;;12.20;99.90;;;;;;5097077;28;20211;-85